createdAt,value
2022-08-25T00:00:21.986Z,23.71
2022-08-25T00:02:56.226Z,23.60
2022-08-25T00:05:39.330Z,23.46
2022-08-25T00:08:09.851Z,23.47
2022-08-25T00:10:40.020Z,23.35
2022-08-25T00:13:09.380Z,23.25
2022-08-25T00:15:38.721Z,23.17
2022-08-25T00:18:16.961Z,23.20
2022-08-25T00:20:50.348Z,23.18
2022-08-25T00:23:21.519Z,23.16
2022-08-25T00:25:51.304Z,23.18
2022-08-25T00:28:19.477Z,23.12
2022-08-25T00:30:49.876Z,23.07
2022-08-25T00:33:19.532Z,23.05
2022-08-25T00:35:50.503Z,23.02
2022-08-25T00:38:20.817Z,23.07
2022-08-25T00:41:06.116Z,22.91
2022-08-25T00:43:38.273Z,22.93
2022-08-25T00:46:06.941Z,22.88
2022-08-25T00:48:35.529Z,22.77
2022-08-25T00:51:04.811Z,22.84
2022-08-25T00:53:35.167Z,22.74
2022-08-25T00:56:03.772Z,22.72
2022-08-25T00:58:33.968Z,22.81
2022-08-25T01:01:02.906Z,22.82
2022-08-25T01:03:35.928Z,22.80
2022-08-25T01:06:06.566Z,22.83
2022-08-25T01:08:36.621Z,22.76
2022-08-25T01:11:08.239Z,22.68
2022-08-25T01:13:40.901Z,22.61
2022-08-25T01:16:09.463Z,22.50
2022-08-25T01:18:49.266Z,22.46
2022-08-25T01:21:21.519Z,22.46
2022-08-25T01:23:50.638Z,22.36
2022-08-25T01:26:25.138Z,22.44
2022-08-25T01:29:19.688Z,22.34
2022-08-25T01:31:49.173Z,22.22
2022-08-25T01:34:19.367Z,22.22
2022-08-25T01:36:49.163Z,22.22
2022-08-25T01:39:18.164Z,22.22
2022-08-25T01:42:05.910Z,22.17
2022-08-25T01:44:37.081Z,22.11
2022-08-25T01:47:07.410Z,22.01
2022-08-25T01:49:35.789Z,21.95
2022-08-25T01:52:09.327Z,21.98
2022-08-25T01:54:37.727Z,22.01
2022-08-25T01:57:06.481Z,21.99
2022-08-25T01:59:34.937Z,22.06
2022-08-25T02:02:04.939Z,21.97
2022-08-25T02:07:06.320Z,21.85
2022-08-25T02:09:35.278Z,21.99
2022-08-25T02:12:04.253Z,21.96
2022-08-25T02:14:32.670Z,21.71
2022-08-25T02:17:00.875Z,21.70
2022-08-25T02:19:31.185Z,21.58
2022-08-25T02:21:59.668Z,21.52
2022-08-25T02:24:30.184Z,21.64
2022-08-25T02:27:00.106Z,21.47
2022-08-25T02:29:28.552Z,21.65
2022-08-25T02:31:57.162Z,21.55
2022-08-25T02:34:25.510Z,21.38
2022-08-25T02:36:54.020Z,21.26
2022-08-25T02:39:24.034Z,21.24
2022-08-25T02:41:53.836Z,21.03
2022-08-25T02:44:22.381Z,21.10
2022-08-25T02:46:51.039Z,21.03
2022-08-25T02:49:19.555Z,21.19
2022-08-25T02:51:48.320Z,21.18
2022-08-25T02:54:17.891Z,21.18
2022-08-25T02:56:46.270Z,21.17
2022-08-25T02:59:18.120Z,21.07
2022-08-25T03:01:47.562Z,20.89
2022-08-25T03:04:15.962Z,21.05
2022-08-25T03:06:44.401Z,20.89
2022-08-25T03:09:13.199Z,20.99
2022-08-25T03:11:42.432Z,21.02
2022-08-25T03:14:12.005Z,21.01
2022-08-25T03:16:42.893Z,21.11
2022-08-25T03:19:15.836Z,21.09
2022-08-25T03:21:45.519Z,20.96
2022-08-25T03:24:14.183Z,21.06
2022-08-25T03:26:56.527Z,20.90
2022-08-25T03:29:27.079Z,20.90
2022-08-25T03:31:58.390Z,20.91
2022-08-25T03:34:29.027Z,20.82
2022-08-25T03:36:59.432Z,20.79
2022-08-25T03:39:29.248Z,20.65
2022-08-25T03:41:57.569Z,20.66
2022-08-25T03:44:25.752Z,20.57
2022-08-25T03:46:54.180Z,20.61
2022-08-25T03:49:25.223Z,20.58
2022-08-25T03:51:55.400Z,20.44
2022-08-25T03:54:26.367Z,20.43
2022-08-25T03:56:55.362Z,20.47
2022-08-25T03:59:23.567Z,20.54
2022-08-25T04:01:55.387Z,20.53
2022-08-25T04:04:26.812Z,20.52
2022-08-25T04:06:55.579Z,20.52
2022-08-25T04:09:24.339Z,20.44
2022-08-25T04:11:54.143Z,20.43
2022-08-25T04:14:23.896Z,20.12
2022-08-25T04:16:53.250Z,20.23
2022-08-25T04:19:22.270Z,20.36
2022-08-25T04:21:56.831Z,20.32
2022-08-25T04:24:25.779Z,20.41
2022-08-25T04:26:53.933Z,20.20
2022-08-25T04:29:24.385Z,19.95
2022-08-25T04:31:53.571Z,19.88
2022-08-25T04:34:29.582Z,19.81
2022-08-25T04:37:03.156Z,19.90
2022-08-25T04:39:32.075Z,20.15
2022-08-25T04:42:01.337Z,20.17
2022-08-25T04:44:30.812Z,19.96
2022-08-25T04:46:59.783Z,19.82
2022-08-25T04:49:28.495Z,20.03
2022-08-25T04:51:57.763Z,20.03
2022-08-25T04:54:28.482Z,20.16
2022-08-25T04:56:58.457Z,20.16
2022-08-25T04:59:30.337Z,20.24
2022-08-25T05:02:02.785Z,20.05
2022-08-25T05:04:31.861Z,20.25
2022-08-25T05:07:00.795Z,20.29
2022-08-25T05:09:32.026Z,20.31
2022-08-25T05:12:02.235Z,20.21
2022-08-25T05:14:31.623Z,20.33
2022-08-25T05:17:02.216Z,20.19
2022-08-25T05:19:30.648Z,20.33
2022-08-25T05:21:59.144Z,20.28
2022-08-25T05:24:28.211Z,20.37
2022-08-25T05:26:58.376Z,20.41
2022-08-25T05:29:27.374Z,20.63
2022-08-25T05:31:56.069Z,20.70
2022-08-25T05:34:25.256Z,20.75
2022-08-25T05:36:57.636Z,20.83
2022-08-25T05:39:26.995Z,20.86
2022-08-25T05:41:55.578Z,20.91
2022-08-25T05:44:25.746Z,21.09
2022-08-25T05:46:53.943Z,21.23
2022-08-25T05:49:22.447Z,21.33
2022-08-25T05:51:50.769Z,21.35
2022-08-25T05:54:19.150Z,21.38
2022-08-25T05:56:47.406Z,21.47
2022-08-25T05:59:16.976Z,21.46
2022-08-25T06:02:04.199Z,21.39
2022-08-25T06:04:32.797Z,21.37
2022-08-25T06:07:01.077Z,21.38
2022-08-25T06:09:29.726Z,21.61
2022-08-25T06:11:58.227Z,21.56
2022-08-25T06:14:27.625Z,21.71
2022-08-25T06:16:57.631Z,21.73
2022-08-25T06:19:26.459Z,22.03
2022-08-25T06:21:56.670Z,22.15
2022-08-25T06:24:25.773Z,22.17
2022-08-25T06:26:54.277Z,21.97
2022-08-25T06:29:22.763Z,21.90
2022-08-25T06:31:51.350Z,22.08
2022-08-25T06:34:23.752Z,22.14
2022-08-25T06:36:52.707Z,22.09
2022-08-25T06:39:21.302Z,22.40
2022-08-25T06:41:53.440Z,22.42
2022-08-25T06:44:22.116Z,22.65
2022-08-25T06:46:51.148Z,22.80
2022-08-25T06:49:21.559Z,22.86
2022-08-25T06:51:50.778Z,23.18
2022-08-25T06:54:19.184Z,23.25
2022-08-25T06:56:49.609Z,23.27
2022-08-25T06:59:19.876Z,23.38
2022-08-25T07:01:50.295Z,23.40
2022-08-25T07:04:23.115Z,23.54
2022-08-25T07:06:55.179Z,23.90
2022-08-25T07:09:23.565Z,23.90
2022-08-25T07:11:52.939Z,24.09
2022-08-25T07:14:23.411Z,24.12
2022-08-25T07:16:51.873Z,24.13
2022-08-25T07:19:21.697Z,24.11
2022-08-25T07:21:54.345Z,24.34
2022-08-25T07:24:23.989Z,24.41
2022-08-25T07:26:52.924Z,24.28
2022-08-25T07:29:31.674Z,24.40
2022-08-25T07:32:01.904Z,24.45
2022-08-25T07:34:52.361Z,24.73
2022-08-25T07:37:47.594Z,24.71
2022-08-25T07:40:18.075Z,24.96
2022-08-25T07:42:47.200Z,25.04
2022-08-25T07:45:20.429Z,24.94
2022-08-25T07:47:51.731Z,24.86
2022-08-25T07:50:23.278Z,25.12
2022-08-25T07:52:55.399Z,25.55
2022-08-25T07:55:28.083Z,25.58
2022-08-25T07:57:59.929Z,25.62
2022-08-25T08:00:30.385Z,25.90
2022-08-25T08:02:59.103Z,25.76
2022-08-25T08:05:28.659Z,25.78
2022-08-25T08:07:58.512Z,26.02
2022-08-25T08:11:04.895Z,25.88
2022-08-25T08:13:18.790Z,26.27
2022-08-25T08:15:48.370Z,26.33
2022-08-25T08:18:17.464Z,26.18
2022-08-25T08:20:50.132Z,26.64
2022-08-25T08:23:19.951Z,26.72
2022-08-25T08:25:48.731Z,26.37
2022-08-25T08:28:19.297Z,26.64
2022-08-25T08:30:52.877Z,26.84
2022-08-25T08:33:23.739Z,26.93
2022-08-25T08:35:59.399Z,27.02
2022-08-25T08:38:29.424Z,26.63
2022-08-25T08:41:25.180Z,27.05
2022-08-25T08:44:02.648Z,27.13
2022-08-25T08:46:42.490Z,27.17
2022-08-25T08:49:26.773Z,27.16
2022-08-25T08:52:01.126Z,27.45
2022-08-25T08:54:36.172Z,27.80
2022-08-25T08:57:11.852Z,27.52
2022-08-25T08:59:49.181Z,27.48
2022-08-25T09:02:39.377Z,26.73
2022-08-25T09:05:19.589Z,27.34
2022-08-25T09:07:55.092Z,27.88
2022-08-25T09:10:31.712Z,27.98
2022-08-25T09:13:12.117Z,28.09
2022-08-25T09:16:08.373Z,27.71
2022-08-25T09:18:52.667Z,28.05
2022-08-25T09:21:29.322Z,28.19
2022-08-25T09:24:15.783Z,28.72
2022-08-25T09:26:54.158Z,28.79
2022-08-25T09:29:26.489Z,28.68
2022-08-25T09:32:01.851Z,28.42
2022-08-25T09:34:34.593Z,28.34
2022-08-25T09:37:03.211Z,28.52
2022-08-25T09:39:33.184Z,28.82
2022-08-25T09:42:03.580Z,29.16
2022-08-25T09:44:36.389Z,29.29
2022-08-25T09:47:08.459Z,29.45
2022-08-25T09:49:44.241Z,29.39
2022-08-25T09:52:33.478Z,29.29
2022-08-25T09:55:21.778Z,29.07
2022-08-25T09:57:57.511Z,28.89
2022-08-25T10:00:29.142Z,29.42
2022-08-25T10:03:13.241Z,29.64
2022-08-25T10:06:00.655Z,30.04
2022-08-25T10:08:35.233Z,30.41
2022-08-25T10:11:09.048Z,30.43
2022-08-25T10:14:02.502Z,30.81
2022-08-25T10:16:36.141Z,30.58
2022-08-25T10:19:09.609Z,31.22
2022-08-25T10:21:39.679Z,31.12
2022-08-25T10:24:11.339Z,31.28
2022-08-25T10:26:55.599Z,31.44
2022-08-25T10:29:38.742Z,31.39
2022-08-25T10:32:17.298Z,30.84
2022-08-25T10:34:51.910Z,30.77
2022-08-25T10:37:33.245Z,30.47
2022-08-25T10:40:16.640Z,31.06
2022-08-25T10:43:07.710Z,30.69
2022-08-25T10:45:44.799Z,30.61
2022-08-25T10:48:41.826Z,30.01
2022-08-25T10:51:27.416Z,30.15
2022-08-25T10:54:08.195Z,30.49
2022-08-25T10:56:41.645Z,30.95
2022-08-25T10:59:23.772Z,31.12
2022-08-25T11:02:14.272Z,31.28
2022-08-25T11:04:51.602Z,31.45
2022-08-25T11:07:26.465Z,31.76
2022-08-25T11:09:59.329Z,32.08
2022-08-25T11:12:33.074Z,32.03
2022-08-25T11:15:10.934Z,32.43
2022-08-25T11:17:50.384Z,32.58
2022-08-25T11:20:26.845Z,32.05
2022-08-25T11:23:04.488Z,31.19
2022-08-25T11:25:38.986Z,30.73
2022-08-25T11:28:13.037Z,30.77
2022-08-25T11:30:42.492Z,30.86
2022-08-25T11:33:14.402Z,30.76
2022-08-25T11:35:51.286Z,31.08
2022-08-25T11:38:47.992Z,31.35
2022-08-25T11:41:28.838Z,30.96
2022-08-25T11:44:13.184Z,30.80
2022-08-25T11:46:53.959Z,30.90
2022-08-25T11:49:41.940Z,30.53
2022-08-25T11:52:43.317Z,31.06
2022-08-25T11:55:15.145Z,30.97
2022-08-25T11:57:44.733Z,31.00
2022-08-25T12:00:17.774Z,31.21
2022-08-25T12:02:48.950Z,31.31
2022-08-25T12:06:01.871Z,30.25
2022-08-25T12:09:08.181Z,30.05
2022-08-25T12:12:01.016Z,30.80
2022-08-25T12:14:45.482Z,30.76
2022-08-25T12:17:40.305Z,31.02
2022-08-25T12:20:09.533Z,30.96
2022-08-25T12:22:55.625Z,30.89
2022-08-25T12:25:49.432Z,30.86
2022-08-25T12:28:57.767Z,30.89
2022-08-25T12:31:48.729Z,31.25
2022-08-25T12:34:38.736Z,31.45
2022-08-25T12:37:15.316Z,31.40
2022-08-25T12:39:58.637Z,31.20
2022-08-25T12:42:33.435Z,31.28
2022-08-25T12:45:36.445Z,31.29
2022-08-25T12:48:44.211Z,31.12
2022-08-25T12:51:19.753Z,30.99
2022-08-25T12:53:55.108Z,31.42
2022-08-25T12:56:35.137Z,31.28
2022-08-25T12:59:18.244Z,31.38
2022-08-25T13:02:20.179Z,31.53
2022-08-25T13:05:49.984Z,31.26
2022-08-25T13:08:48.190Z,31.26
2022-08-25T13:11:23.021Z,31.28
2022-08-25T13:13:58.960Z,31.32
2022-08-25T13:16:31.451Z,31.32
2022-08-25T13:19:01.790Z,31.49
2022-08-25T13:21:32.941Z,31.54
2022-08-25T13:24:07.504Z,31.86
2022-08-25T13:26:47.164Z,31.92
2022-08-25T13:29:21.714Z,32.52
2022-08-25T13:31:57.480Z,32.58
2022-08-25T13:34:34.402Z,31.99
2022-08-25T13:37:25.848Z,32.12
2022-08-25T13:40:10.956Z,32.75
2022-08-25T13:42:44.477Z,33.35
2022-08-25T13:45:22.005Z,33.45
2022-08-25T13:48:07.597Z,33.54
2022-08-25T13:50:43.758Z,33.35
2022-08-25T13:53:25.694Z,33.79
2022-08-25T13:55:57.317Z,33.65
2022-08-25T13:58:39.113Z,33.96
2022-08-25T14:01:22.707Z,34.14
2022-08-25T14:04:32.176Z,33.90
2022-08-25T14:07:11.026Z,33.47
2022-08-25T14:09:43.005Z,33.40
2022-08-25T14:12:29.356Z,33.52
2022-08-25T14:15:05.988Z,33.27
2022-08-25T14:17:39.517Z,32.82
2022-08-25T14:20:20.571Z,32.70
2022-08-25T14:22:50.124Z,32.91
2022-08-25T14:25:18.751Z,32.51
2022-08-25T14:28:07.394Z,32.43
2022-08-25T14:30:43.364Z,32.54
2022-08-25T14:33:15.633Z,32.55
2022-08-25T14:35:47.475Z,32.66
2022-08-25T14:38:17.696Z,32.40
2022-08-25T14:40:46.366Z,32.13
2022-08-25T14:43:15.904Z,31.97
2022-08-25T14:45:49.235Z,31.95
2022-08-25T14:48:25.938Z,31.62
2022-08-25T14:50:54.910Z,31.37
2022-08-25T14:53:23.083Z,31.29
2022-08-25T14:55:54.094Z,31.58
2022-08-25T14:58:33.976Z,31.75
2022-08-25T15:01:06.228Z,32.31
2022-08-25T15:03:39.052Z,32.83
2022-08-25T15:06:08.036Z,33.16
2022-08-25T15:08:57.976Z,33.11
2022-08-25T15:11:27.291Z,33.09
2022-08-25T15:13:57.804Z,33.40
2022-08-25T15:16:35.179Z,33.53
2022-08-25T15:19:06.967Z,33.95
2022-08-25T15:21:37.302Z,34.09
2022-08-25T15:24:05.943Z,33.94
2022-08-25T15:26:44.336Z,34.59
2022-08-25T15:29:13.792Z,34.40
2022-08-25T15:31:45.577Z,34.28
2022-08-25T15:34:15.879Z,34.15
2022-08-25T15:36:44.435Z,34.53
2022-08-25T15:39:14.250Z,34.63
2022-08-25T15:41:43.843Z,34.92
2022-08-25T15:44:12.498Z,34.25
2022-08-25T15:46:47.019Z,34.69
2022-08-25T15:49:23.315Z,34.93
2022-08-25T15:51:54.354Z,35.22
2022-08-25T15:54:26.642Z,34.79
2022-08-25T15:56:57.374Z,35.08
2022-08-25T15:59:26.510Z,35.67
2022-08-25T16:02:04.766Z,36.56
2022-08-25T16:04:43.668Z,36.63
2022-08-25T16:07:13.509Z,36.00
2022-08-25T16:09:48.068Z,35.96
2022-08-25T16:12:19.639Z,36.39
2022-08-25T16:14:48.097Z,36.26
2022-08-25T16:17:22.296Z,35.66
2022-08-25T16:19:50.950Z,35.37
2022-08-25T16:22:21.056Z,34.76
2022-08-25T16:24:49.930Z,34.98
2022-08-25T16:27:19.463Z,35.60
2022-08-25T16:29:48.284Z,35.99
2022-08-25T16:32:19.291Z,35.47
2022-08-25T16:34:49.429Z,35.47
2022-08-25T16:37:18.169Z,35.84
2022-08-25T16:39:47.029Z,35.88
2022-08-25T16:42:16.419Z,35.49
2022-08-25T16:44:45.261Z,35.93
2022-08-25T16:47:17.561Z,35.32
2022-08-25T16:49:50.312Z,36.11
2022-08-25T16:52:32.246Z,35.77
2022-08-25T16:55:15.298Z,36.32
2022-08-25T16:57:47.954Z,36.39
2022-08-25T17:00:19.296Z,36.14
2022-08-25T17:02:47.903Z,35.92
2022-08-25T17:05:19.921Z,35.68
2022-08-25T17:08:09.072Z,35.27
2022-08-25T17:10:41.549Z,35.02
2022-08-25T17:13:10.895Z,35.36
2022-08-25T17:15:42.481Z,35.72
2022-08-25T17:18:15.114Z,35.69
2022-08-25T17:20:45.823Z,35.55
2022-08-25T17:23:14.723Z,35.27
2022-08-25T17:25:45.789Z,34.82
2022-08-25T17:28:14.949Z,34.40
2022-08-25T17:30:44.184Z,34.54
2022-08-25T17:33:14.376Z,34.66
2022-08-25T17:35:47.750Z,34.49
2022-08-25T17:38:19.990Z,34.48
2022-08-25T17:40:49.681Z,34.08
2022-08-25T17:43:18.385Z,33.69
2022-08-25T17:45:47.088Z,33.82
2022-08-25T17:48:17.467Z,34.10
2022-08-25T17:50:47.665Z,34.11
2022-08-25T17:53:19.318Z,34.05
2022-08-25T17:55:48.893Z,33.93
2022-08-25T17:58:18.784Z,34.35
2022-08-25T18:00:49.481Z,34.23
2022-08-25T18:03:19.660Z,33.98
2022-08-25T18:05:50.171Z,34.11
2022-08-25T18:08:19.140Z,33.43
2022-08-25T18:10:49.108Z,32.97
2022-08-25T18:13:20.203Z,32.63
2022-08-25T18:15:51.512Z,32.11
2022-08-25T18:18:20.341Z,32.19
2022-08-25T18:20:57.048Z,31.83
2022-08-25T18:23:26.941Z,31.65
2022-08-25T18:26:00.592Z,31.34
2022-08-25T18:28:30.191Z,31.12
2022-08-25T18:31:00.693Z,31.02
2022-08-25T18:33:30.228Z,30.92
2022-08-25T18:36:01.097Z,30.92
2022-08-25T18:38:47.167Z,30.73
2022-08-25T18:41:16.290Z,30.65
2022-08-25T18:43:45.258Z,30.34
2022-08-25T18:46:13.616Z,30.21
2022-08-25T18:48:43.835Z,30.16
2022-08-25T18:51:14.374Z,29.86
2022-08-25T18:53:50.427Z,29.71
2022-08-25T18:56:19.920Z,29.43
2022-08-25T18:58:51.426Z,29.38
2022-08-25T19:01:20.774Z,29.27
2022-08-25T19:03:49.985Z,29.24
2022-08-25T19:06:20.727Z,29.15
2022-08-25T19:08:53.033Z,29.03
2022-08-25T19:11:22.251Z,28.59
2022-08-25T19:13:51.288Z,28.51
2022-08-25T19:16:34.453Z,28.33
2022-08-25T19:19:06.345Z,28.29
2022-08-25T19:21:39.015Z,28.30
2022-08-25T19:24:08.831Z,28.01
2022-08-25T19:26:38.823Z,27.75
2022-08-25T19:29:10.375Z,27.67
2022-08-25T19:31:41.095Z,27.74
2022-08-25T19:34:12.730Z,27.54
2022-08-25T19:36:47.645Z,27.46
2022-08-25T19:39:17.816Z,27.44
2022-08-25T19:41:48.129Z,27.23
2022-08-25T19:44:20.384Z,27.34
2022-08-25T19:46:50.802Z,27.30
2022-08-25T19:49:26.360Z,27.12
2022-08-25T19:52:01.031Z,27.26
2022-08-25T19:54:33.917Z,27.16
2022-08-25T19:57:02.760Z,27.01
2022-08-25T19:59:42.968Z,27.07
2022-08-25T20:02:15.537Z,27.04
2022-08-25T20:04:49.904Z,26.85
2022-08-25T20:07:25.148Z,26.89
2022-08-25T20:09:56.933Z,26.90
2022-08-25T20:12:28.015Z,26.85
2022-08-25T20:14:57.033Z,26.94
2022-08-25T20:17:28.630Z,26.86
2022-08-25T20:20:06.245Z,26.83
2022-08-25T20:22:36.676Z,26.48
2022-08-25T20:25:13.178Z,26.35
2022-08-25T20:27:47.746Z,26.10
2022-08-25T20:30:19.087Z,25.96
2022-08-25T20:32:47.963Z,25.75
2022-08-25T20:35:17.138Z,25.74
2022-08-25T20:37:49.784Z,25.62
2022-08-25T20:40:26.267Z,25.77
2022-08-25T20:42:57.779Z,25.66
2022-08-25T20:45:29.933Z,25.86
2022-08-25T20:48:01.969Z,25.74
2022-08-25T20:50:31.629Z,25.60
2022-08-25T20:53:02.856Z,25.77
2022-08-25T20:55:32.396Z,25.39
2022-08-25T20:58:14.484Z,25.29
2022-08-25T21:00:43.105Z,25.22
2022-08-25T21:03:12.226Z,25.22
2022-08-25T21:05:43.285Z,25.09
2022-08-25T21:08:13.109Z,25.28
2022-08-25T21:10:42.779Z,25.26
2022-08-25T21:13:12.436Z,25.20
2022-08-25T21:15:44.407Z,25.16
2022-08-25T21:18:14.181Z,25.05
2022-08-25T21:20:42.547Z,25.19
2022-08-25T21:23:11.229Z,25.08
2022-08-25T21:25:43.135Z,25.19
2022-08-25T21:28:11.681Z,25.24
2022-08-25T21:30:44.823Z,25.03
2022-08-25T21:33:17.211Z,24.96
2022-08-25T21:35:49.869Z,25.03
2022-08-25T21:38:19.033Z,24.99
2022-08-25T21:40:49.756Z,24.90
2022-08-25T21:43:24.953Z,25.00
2022-08-25T21:45:55.175Z,24.79
2022-08-25T21:48:27.617Z,24.59
2022-08-25T21:51:05.607Z,24.83
2022-08-25T21:53:35.990Z,24.91
2022-08-25T21:56:16.369Z,24.75
2022-08-25T21:58:49.024Z,24.76
2022-08-25T22:01:19.732Z,24.57
2022-08-25T22:03:51.804Z,24.58
2022-08-25T22:06:22.811Z,24.53
2022-08-25T22:08:51.509Z,24.46
2022-08-25T22:11:22.813Z,24.44
2022-08-25T22:13:54.130Z,24.50
2022-08-25T22:16:23.370Z,24.44
2022-08-25T22:18:53.095Z,24.32
2022-08-25T22:21:27.727Z,24.42
2022-08-25T22:23:57.236Z,24.55
2022-08-25T22:26:30.841Z,24.54
2022-08-25T22:29:01.230Z,24.58
2022-08-25T22:31:31.826Z,24.54
2022-08-25T22:34:00.141Z,24.60
2022-08-25T22:36:33.327Z,24.52
2022-08-25T22:39:02.674Z,24.49
2022-08-25T22:41:34.532Z,24.35
2022-08-25T22:44:09.981Z,24.22
2022-08-25T22:46:39.675Z,24.19
2022-08-25T22:49:09.281Z,24.24
2022-08-25T22:51:37.764Z,24.22
2022-08-25T22:54:06.655Z,24.26
2022-08-25T22:56:39.939Z,24.13
2022-08-25T22:59:10.815Z,24.10
2022-08-25T23:01:39.624Z,24.11
2022-08-25T23:04:08.820Z,24.11
2022-08-25T23:06:40.250Z,24.09
2022-08-25T23:09:10.884Z,24.17
2022-08-25T23:11:41.210Z,24.01
2022-08-25T23:14:11.254Z,23.97
2022-08-25T23:16:41.657Z,23.95
2022-08-25T23:19:13.945Z,24.05
2022-08-25T23:22:00.232Z,23.96
2022-08-25T23:24:30.542Z,23.99
2022-08-25T23:27:01.913Z,23.98
2022-08-25T23:29:32.319Z,23.96
2022-08-25T23:32:00.861Z,23.93
2022-08-25T23:34:29.604Z,23.83
2022-08-25T23:36:58.440Z,23.78
2022-08-25T23:39:27.611Z,23.72
2022-08-25T23:41:56.127Z,23.68
2022-08-25T23:44:26.907Z,23.67
2022-08-25T23:46:55.519Z,23.82
2022-08-25T23:49:26.639Z,23.80
2022-08-25T23:51:57.746Z,23.81
2022-08-25T23:54:31.050Z,23.72
2022-08-25T23:57:01.601Z,23.62
2022-08-25T23:59:32.315Z,23.51
